Time;durP1;ratioP1;P1;durP2;ratioP2;P2;SDS_P1;SDS_P2;PMS_P1;PMS_P2;Temp;Humidity;BMP_temperature;BMP_pressure;BME280_temperature;BME280_humidity;BME280_pressure;Samples;Min_cycle;Max_cycle;Signal;HPM_P1;HPM_P2
2021/03/29 00:00:46;;;;;;;7.87;2.20;;;;;;;;;;5080889;28;20216;-47
2021/03/29 00:03:11;;;;;;;7.27;2.10;;;;;;;;;;5082981;28;20188;-47
2021/03/29 00:05:37;;;;;;;7.73;2.20;;;;;;;;;;5084638;28;20189;-47
2021/03/29 00:08:07;;;;;;;8.47;2.47;;;;;;;;;;5083006;28;20230;-48
2021/03/29 00:10:35;;;;;;;8.90;2.03;;;;;;;;;;5081375;28;20211;-48
2021/03/29 00:13:01;;;;;;;6.40;2.27;;;;;;;;;;5064797;28;20209;-48
2021/03/29 00:15:32;;;;;;;7.50;2.40;;;;;;;;;;5087257;28;20224;-47
2021/03/29 00:17:58;;;;;;;8.73;2.57;;;;;;;;;;5059397;28;20284;-48
2021/03/29 00:20:29;;;;;;;8.57;2.17;;;;;;;;;;5077981;28;20324;-46
2021/03/29 00:22:56;;;;;;;5.33;2.13;;;;;;;;;;5084186;28;20212;-48
2021/03/29 00:25:25;;;;;;;6.53;2.67;;;;;;;;;;5087680;28;20203;-47
2021/03/29 00:27:51;;;;;;;6.87;2.20;;;;;;;;;;5082020;28;20201;-48
2021/03/29 00:30:23;;;;;;;7.83;2.87;;;;;;;;;;5078553;28;20216;-48
2021/03/29 00:32:50;;;;;;;6.77;2.60;;;;;;;;;;5082902;28;20213;-50
2021/03/29 00:35:18;;;;;;;7.27;2.07;;;;;;;;;;5085644;28;20200;-46
2021/03/29 00:37:46;;;;;;;8.13;2.50;;;;;;;;;;5067740;28;20195;-48
2021/03/29 00:40:12;;;;;;;9.07;2.53;;;;;;;;;;5079265;28;20205;-48
2021/03/29 00:42:39;;;;;;;9.97;2.87;;;;;;;;;;5064056;28;20291;-48
2021/03/29 00:45:13;;;;;;;7.73;2.87;;;;;;;;;;5069356;28;20192;-47
2021/03/29 00:47:41;;;;;;;8.90;2.67;;;;;;;;;;5086420;28;20199;-47
2021/03/29 00:50:12;;;;;;;6.17;2.50;;;;;;;;;;5080091;28;20190;-47
2021/03/29 00:52:39;;;;;;;5.57;2.43;;;;;;;;;;5080049;28;20197;-48
2021/03/29 00:55:11;;;;;;;7.60;2.60;;;;;;;;;;5067455;28;20211;-46
2021/03/29 00:57:38;;;;;;;8.07;2.40;;;;;;;;;;5077165;28;20387;-47
2021/03/29 01:00:15;;;;;;;8.53;2.77;;;;;;;;;;5082119;28;20189;-49
2021/03/29 01:02:41;;;;;;;8.50;2.37;;;;;;;;;;5079832;28;20701;-47
2021/03/29 01:05:27;;;;;;;7.10;2.63;;;;;;;;;;5081389;28;20263;-48
2021/03/29 01:07:53;;;;;;;7.30;2.57;;;;;;;;;;5082083;28;20228;-48
2021/03/29 01:10:21;;;;;;;6.93;2.70;;;;;;;;;;5081924;28;20199;-48
2021/03/29 01:12:47;;;;;;;7.70;2.97;;;;;;;;;;5074211;28;20205;-47
2021/03/29 01:15:15;;;;;;;8.27;2.80;;;;;;;;;;5079643;28;20197;-48
2021/03/29 01:17:43;;;;;;;4.80;2.10;;;;;;;;;;5081772;28;20189;-47
2021/03/29 01:20:27;;;;;;;6.23;3.03;;;;;;;;;;5081181;28;20188;-49
2021/03/29 01:22:53;;;;;;;5.67;2.87;;;;;;;;;;5085848;28;20184;-47
2021/03/29 01:25:31;;;;;;;7.60;2.70;;;;;;;;;;5082057;28;20240;-46
2021/03/29 01:28:09;;;;;;;6.70;3.00;;;;;;;;;;5062844;28;20188;-48
2021/03/29 01:30:37;;;;;;;10.97;2.87;;;;;;;;;;5077667;28;20558;-48
2021/03/29 01:33:06;;;;;;;8.63;3.03;;;;;;;;;;5083315;28;20208;-47
2021/03/29 01:35:48;;;;;;;6.87;2.70;;;;;;;;;;5075163;28;20338;-49
2021/03/29 01:38:14;;;;;;;5.27;2.73;;;;;;;;;;5079859;28;20596;-47
2021/03/29 01:40:42;;;;;;;8.07;3.47;;;;;;;;;;5080984;28;20211;-46
2021/03/29 01:43:09;;;;;;;8.40;3.20;;;;;;;;;;5078424;28;20192;-47
2021/03/29 01:45:39;;;;;;;8.83;2.97;;;;;;;;;;5078596;28;20321;-47
2021/03/29 01:48:06;;;;;;;9.27;3.50;;;;;;;;;;5079484;28;20195;-48
2021/03/29 01:50:36;;;;;;;8.43;3.20;;;;;;;;;;5075611;28;20213;-47
2021/03/29 01:53:04;;;;;;;7.50;3.10;;;;;;;;;;5085596;28;20296;-48
2021/03/29 01:55:31;;;;;;;7.77;3.20;;;;;;;;;;5064823;28;20724;-47
2021/03/29 01:57:59;;;;;;;9.30;3.23;;;;;;;;;;5072315;28;20755;-46
2021/03/29 02:00:29;;;;;;;7.57;2.80;;;;;;;;;;5081167;28;20220;-46
2021/03/29 02:02:55;;;;;;;11.07;3.30;;;;;;;;;;5071051;28;20212;-46
2021/03/29 02:05:22;;;;;;;14.50;3.53;;;;;;;;;;5083958;28;20200;-46
2021/03/29 02:07:50;;;;;;;10.33;3.27;;;;;;;;;;5082294;28;20227;-46
2021/03/29 02:10:20;;;;;;;8.90;3.13;;;;;;;;;;5072365;28;20193;-47
2021/03/29 02:12:46;;;;;;;11.97;3.70;;;;;;;;;;5080203;28;20645;-46
2021/03/29 02:15:14;;;;;;;9.27;2.90;;;;;;;;;;5079369;28;20180;-46
2021/03/29 02:17:41;;;;;;;14.13;3.50;;;;;;;;;;5080052;28;20193;-46
2021/03/29 02:20:15;;;;;;;5.73;2.67;;;;;;;;;;5075258;28;20196;-49
2021/03/29 02:22:47;;;;;;;5.33;2.57;;;;;;;;;;5082478;28;20271;-46
2021/03/29 02:25:17;;;;;;;8.40;2.60;;;;;;;;;;5080853;28;20215;-47
2021/03/29 02:27:47;;;;;;;5.53;2.63;;;;;;;;;;5084966;28;20528;-46
2021/03/29 02:30:15;;;;;;;5.83;2.40;;;;;;;;;;5082901;28;20188;-48
2021/03/29 02:32:45;;;;;;;6.27;2.60;;;;;;;;;;5070364;28;20684;-46
2021/03/29 02:35:12;;;;;;;10.40;2.40;;;;;;;;;;5084730;28;21727;-46
2021/03/29 02:37:49;;;;;;;5.37;2.63;;;;;;;;;;5076202;28;20197;-45
2021/03/29 02:40:17;;;;;;;6.73;2.17;;;;;;;;;;5084088;28;20649;-46
2021/03/29 02:42:44;;;;;;;7.63;2.10;;;;;;;;;;5086152;28;20180;-46
2021/03/29 02:45:12;;;;;;;5.40;2.00;;;;;;;;;;5082621;28;20572;-45
2021/03/29 02:47:59;;;;;;;4.97;1.80;;;;;;;;;;5071485;28;20195;-48
2021/03/29 02:50:26;;;;;;;6.83;2.30;;;;;;;;;;5084527;28;20231;-46
2021/03/29 02:52:58;;;;;;;8.40;2.70;;;;;;;;;;5083993;28;20236;-46
2021/03/29 02:55:25;;;;;;;9.70;2.77;;;;;;;;;;5083941;28;20675;-45
2021/03/29 02:57:53;;;;;;;7.90;2.40;;;;;;;;;;5083932;28;20185;-46
2021/03/29 03:00:21;;;;;;;5.40;2.00;;;;;;;;;;5088483;28;20203;-46
2021/03/29 03:02:47;;;;;;;5.33;2.07;;;;;;;;;;5077475;28;20185;-46
2021/03/29 03:05:15;;;;;;;4.60;2.20;;;;;;;;;;5081438;28;20208;-45
2021/03/29 03:07:41;;;;;;;7.77;2.33;;;;;;;;;;5082571;28;20200;-48
2021/03/29 03:10:09;;;;;;;7.10;2.53;;;;;;;;;;5081510;28;20263;-46
2021/03/29 03:12:36;;;;;;;8.20;2.63;;;;;;;;;;5082584;28;20189;-46
2021/03/29 03:15:02;;;;;;;8.93;2.40;;;;;;;;;;5060155;28;20635;-46
2021/03/29 03:17:28;;;;;;;6.73;2.00;;;;;;;;;;5085067;28;20192;-46
2021/03/29 03:19:53;;;;;;;9.83;2.63;;;;;;;;;;5082932;28;20177;-45
2021/03/29 03:22:18;;;;;;;8.70;2.67;;;;;;;;;;5078710;28;20242;-46
2021/03/29 03:24:44;;;;;;;11.73;2.50;;;;;;;;;;5057186;28;20192;-48
2021/03/29 03:27:10;;;;;;;7.03;2.80;;;;;;;;;;5082210;28;20638;-47
2021/03/29 03:29:44;;;;;;;9.93;2.53;;;;;;;;;;5082372;28;20211;-48
2021/03/29 03:32:14;;;;;;;8.23;2.63;;;;;;;;;;5083759;28;20218;-46
2021/03/29 03:34:40;;;;;;;10.37;3.20;;;;;;;;;;5080907;28;20220;-47
2021/03/29 03:37:08;;;;;;;6.57;2.60;;;;;;;;;;5081937;28;20253;-46
2021/03/29 03:39:34;;;;;;;7.63;2.50;;;;;;;;;;5080448;28;20185;-45
2021/03/29 03:41:59;;;;;;;8.97;2.63;;;;;;;;;;5063299;28;20219;-46
2021/03/29 03:44:27;;;;;;;11.23;2.80;;;;;;;;;;5080002;28;20188;-47
2021/03/29 03:46:52;;;;;;;8.23;2.60;;;;;;;;;;5077308;28;20221;-45
2021/03/29 03:49:23;;;;;;;10.77;3.13;;;;;;;;;;5089767;28;20790;-47
2021/03/29 03:51:49;;;;;;;9.33;2.10;;;;;;;;;;5079645;28;20205;-47
2021/03/29 03:54:17;;;;;;;8.87;2.73;;;;;;;;;;5081689;28;20238;-46
2021/03/29 03:56:42;;;;;;;12.73;2.93;;;;;;;;;;5083527;28;20700;-46
2021/03/29 03:59:09;;;;;;;7.23;2.60;;;;;;;;;;5079419;28;20225;-47
2021/03/29 04:02:02;;;;;;;8.90;3.30;;;;;;;;;;5084415;28;20215;-45
2021/03/29 04:04:27;;;;;;;6.47;2.47;;;;;;;;;;5078644;28;20185;-46
2021/03/29 04:06:52;;;;;;;10.93;2.97;;;;;;;;;;5079635;28;20641;-46
2021/03/29 04:09:20;;;;;;;7.47;2.47;;;;;;;;;;5083490;28;20201;-45
2021/03/29 04:11:50;;;;;;;6.23;2.63;;;;;;;;;;5068782;28;20216;-48
2021/03/29 04:14:16;;;;;;;8.70;2.77;;;;;;;;;;5078255;28;20571;-48
2021/03/29 04:16:41;;;;;;;7.60;2.13;;;;;;;;;;5082160;28;20184;-47
2021/03/29 04:19:06;;;;;;;9.43;2.70;;;;;;;;;;5075179;28;20189;-46
2021/03/29 04:21:31;;;;;;;9.03;2.50;;;;;;;;;;5070263;28;20208;-46
2021/03/29 04:23:57;;;;;;;8.87;2.63;;;;;;;;;;5063682;28;20196;-47
2021/03/29 04:26:22;;;;;;;10.13;2.73;;;;;;;;;;5079358;28;20193;-46
2021/03/29 04:28:50;;;;;;;6.00;2.40;;;;;;;;;;5080915;28;20742;-45
2021/03/29 04:31:15;;;;;;;9.10;2.80;;;;;;;;;;5068716;28;20212;-46
2021/03/29 04:33:40;;;;;;;6.83;2.13;;;;;;;;;;5077708;28;20215;-45
2021/03/29 04:36:06;;;;;;;7.47;2.40;;;;;;;;;;5081204;28;20608;-45
2021/03/29 04:38:31;;;;;;;5.83;2.37;;;;;;;;;;5074621;28;20212;-48
2021/03/29 04:40:56;;;;;;;7.67;2.13;;;;;;;;;;5087618;28;20291;-46
2021/03/29 04:43:22;;;;;;;7.40;2.27;;;;;;;;;;5080555;28;20560;-46
2021/03/29 04:45:47;;;;;;;4.40;1.77;;;;;;;;;;5079104;28;20208;-46
2021/03/29 04:48:13;;;;;;;6.87;2.63;;;;;;;;;;5079177;28;20271;-45
2021/03/29 04:50:38;;;;;;;5.50;2.07;;;;;;;;;;5079544;28;20695;-47
2021/03/29 04:53:03;;;;;;;11.13;2.53;;;;;;;;;;5082888;28;20583;-47
2021/03/29 04:55:29;;;;;;;7.00;2.50;;;;;;;;;;5063081;28;20242;-47
2021/03/29 04:57:56;;;;;;;4.70;2.30;;;;;;;;;;5075673;28;20193;-46
2021/03/29 05:00:22;;;;;;;5.40;2.23;;;;;;;;;;5074305;28;20215;-45
2021/03/29 05:02:47;;;;;;;9.80;2.67;;;;;;;;;;5075869;28;20184;-47
2021/03/29 05:05:12;;;;;;;8.70;2.47;;;;;;;;;;5072248;28;20456;-46
2021/03/29 05:07:38;;;;;;;8.10;2.30;;;;;;;;;;5073325;28;20759;-46
2021/03/29 05:10:11;;;;;;;8.83;2.63;;;;;;;;;;5084542;28;20712;-45
2021/03/29 05:12:36;;;;;;;4.53;2.30;;;;;;;;;;5083085;28;20192;-47
2021/03/29 05:15:03;;;;;;;4.33;2.37;;;;;;;;;;5080250;28;20189;-47
2021/03/29 05:17:28;;;;;;;9.80;2.50;;;;;;;;;;5080803;28;20197;-45
2021/03/29 05:19:53;;;;;;;5.93;2.80;;;;;;;;;;5083559;28;20200;-46
2021/03/29 05:22:18;;;;;;;9.37;3.03;;;;;;;;;;5058693;28;20700;-45
2021/03/29 05:24:44;;;;;;;8.30;2.80;;;;;;;;;;5063745;28;20211;-45
2021/03/29 05:27:09;;;;;;;7.23;2.30;;;;;;;;;;5063959;28;20193;-45
2021/03/29 05:29:41;;;;;;;3.33;1.70;;;;;;;;;;5065427;28;20562;-46
2021/03/29 05:32:15;;;;;;;11.90;3.27;;;;;;;;;;5085859;28;20208;-46
2021/03/29 05:34:42;;;;;;;8.13;2.57;;;;;;;;;;5080581;28;20214;-47
2021/03/29 05:37:07;;;;;;;10.43;2.93;;;;;;;;;;5075853;28;20232;-47
2021/03/29 05:39:33;;;;;;;6.03;2.50;;;;;;;;;;5080184;28;20224;-45
2021/03/29 05:41:58;;;;;;;5.90;2.50;;;;;;;;;;5081175;28;20200;-46
2021/03/29 05:44:24;;;;;;;4.67;1.90;;;;;;;;;;5077481;28;20190;-46
2021/03/29 05:46:50;;;;;;;5.10;2.00;;;;;;;;;;5077033;28;20204;-46
2021/03/29 05:49:15;;;;;;;8.30;2.47;;;;;;;;;;5062457;28;20189;-45
2021/03/29 05:51:40;;;;;;;8.27;2.60;;;;;;;;;;5075646;28;20234;-48
2021/03/29 05:54:07;;;;;;;9.27;2.60;;;;;;;;;;5077966;28;20243;-46
2021/03/29 05:56:38;;;;;;;9.60;2.40;;;;;;;;;;5059920;28;20189;-46
2021/03/29 06:01:46;;;;;;;6.40;2.30;;;;;;;;;;5084155;28;20207;-47
2021/03/29 06:04:12;;;;;;;8.30;1.83;;;;;;;;;;5080488;28;20188;-46
2021/03/29 06:06:38;;;;;;;8.00;2.03;;;;;;;;;;5084373;28;20193;-46
2021/03/29 06:09:04;;;;;;;11.07;2.50;;;;;;;;;;5076994;28;20204;-46
2021/03/29 06:11:36;;;;;;;8.83;2.93;;;;;;;;;;5078023;28;20211;-46
2021/03/29 06:14:05;;;;;;;6.30;2.27;;;;;;;;;;5073468;28;20255;-45
2021/03/29 06:16:30;;;;;;;6.00;2.83;;;;;;;;;;5076930;28;20203;-45
2021/03/29 06:18:56;;;;;;;10.37;3.23;;;;;;;;;;5063530;28;20603;-47
2021/03/29 06:21:21;;;;;;;8.00;2.83;;;;;;;;;;5080101;28;20208;-46
2021/03/29 06:23:58;;;;;;;12.40;3.33;;;;;;;;;;5082935;28;20206;-46
2021/03/29 06:26:30;;;;;;;8.30;2.30;;;;;;;;;;5053381;28;20208;-46
2021/03/29 06:28:56;;;;;;;8.13;2.50;;;;;;;;;;5076904;28;20192;-46
2021/03/29 06:31:26;;;;;;;8.23;2.20;;;;;;;;;;5078710;28;20349;-46
2021/03/29 06:33:53;;;;;;;8.03;2.17;;;;;;;;;;5080575;28;20216;-47
2021/03/29 06:36:28;;;;;;;8.27;2.43;;;;;;;;;;5080871;28;20201;-48
2021/03/29 06:38:53;;;;;;;6.47;2.17;;;;;;;;;;5078310;28;20185;-46
2021/03/29 06:41:28;;;;;;;9.20;3.10;;;;;;;;;;5063055;28;20220;-48
2021/03/29 06:43:54;;;;;;;6.60;2.30;;;;;;;;;;5057698;28;20199;-47
2021/03/29 06:46:28;;;;;;;5.67;2.10;;;;;;;;;;5072899;28;20683;-46
2021/03/29 06:49:00;;;;;;;6.80;2.43;;;;;;;;;;5059886;28;20190;-46
2021/03/29 06:51:33;;;;;;;8.27;2.60;;;;;;;;;;5077514;28;20227;-46
2021/03/29 06:54:07;;;;;;;9.33;2.43;;;;;;;;;;5080845;28;20688;-46
2021/03/29 06:56:35;;;;;;;7.47;2.90;;;;;;;;;;5079609;28;20229;-48
2021/03/29 06:59:03;;;;;;;8.17;2.23;;;;;;;;;;5083263;28;20616;-48
2021/03/29 07:01:30;;;;;;;7.73;2.77;;;;;;;;;;5082061;28;20299;-47
2021/03/29 07:03:56;;;;;;;10.17;3.20;;;;;;;;;;5073791;28;20715;-46
2021/03/29 07:06:26;;;;;;;10.33;2.30;;;;;;;;;;5088922;28;20563;-46
2021/03/29 07:08:52;;;;;;;7.57;2.53;;;;;;;;;;5079637;28;20192;-47
2021/03/29 07:11:19;;;;;;;6.73;2.87;;;;;;;;;;5074769;28;20300;-47
2021/03/29 07:13:45;;;;;;;9.70;2.43;;;;;;;;;;5079031;28;20266;-46
2021/03/29 07:16:12;;;;;;;9.50;1.90;;;;;;;;;;5086504;28;20185;-47
2021/03/29 07:18:38;;;;;;;10.40;3.00;;;;;;;;;;5085763;28;20191;-46
2021/03/29 07:21:05;;;;;;;11.80;2.60;;;;;;;;;;5084464;28;20288;-47
2021/03/29 07:23:32;;;;;;;8.37;2.40;;;;;;;;;;5084525;28;20676;-46
2021/03/29 07:25:58;;;;;;;5.77;1.90;;;;;;;;;;5087057;28;20192;-46
2021/03/29 07:28:28;;;;;;;8.30;2.40;;;;;;;;;;5068675;28;20626;-48
2021/03/29 07:30:54;;;;;;;6.33;2.23;;;;;;;;;;5085139;28;20239;-48
2021/03/29 07:33:21;;;;;;;7.87;2.43;;;;;;;;;;5085431;28;20240;-46
2021/03/29 07:35:57;;;;;;;9.67;2.97;;;;;;;;;;5066419;28;20596;-46
2021/03/29 07:38:24;;;;;;;9.10;2.73;;;;;;;;;;5088453;28;20176;-46
2021/03/29 07:40:52;;;;;;;7.00;3.20;;;;;;;;;;5058870;28;20265;-48
2021/03/29 07:43:20;;;;;;;8.60;2.93;;;;;;;;;;5068519;28;20200;-46
2021/03/29 07:46:03;;;;;;;9.77;3.00;;;;;;;;;;5081150;28;21822;-47
2021/03/29 07:48:40;;;;;;;5.80;2.13;;;;;;;;;;5083668;28;20545;-46
2021/03/29 07:51:11;;;;;;;11.00;2.90;;;;;;;;;;5072644;28;20220;-47
2021/03/29 07:53:50;;;;;;;9.47;2.57;;;;;;;;;;5062890;28;20216;-47
2021/03/29 07:56:33;;;;;;;13.10;2.80;;;;;;;;;;5082493;28;20208;-48
2021/03/29 07:58:59;;;;;;;8.50;3.03;;;;;;;;;;5074498;28;20227;-48
2021/03/29 08:01:24;;;;;;;8.83;3.20;;;;;;;;;;5079852;28;20249;-47
2021/03/29 08:03:53;;;;;;;9.00;3.07;;;;;;;;;;5084566;28;20644;-47
2021/03/29 08:06:39;;;;;;;9.53;3.00;;;;;;;;;;5076899;28;20201;-47
2021/03/29 08:09:10;;;;;;;8.80;2.30;;;;;;;;;;5066020;28;20187;-47
2021/03/29 08:11:55;;;;;;;8.17;2.80;;;;;;;;;;5084350;28;20212;-47
2021/03/29 08:14:52;;;;;;;6.13;2.63;;;;;;;;;;5080531;28;20217;-48
2021/03/29 08:17:36;;;;;;;10.77;3.20;;;;;;;;;;5076713;28;20200;-47
2021/03/29 08:20:23;;;;;;;9.77;2.93;;;;;;;;;;5066081;28;20231;-48
2021/03/29 08:23:27;;;;;;;9.63;2.70;;;;;;;;;;5069232;28;20911;-46
2021/03/29 08:26:12;;;;;;;6.87;2.07;;;;;;;;;;5081559;28;20181;-47
2021/03/29 08:29:09;;;;;;;9.50;3.10;;;;;;;;;;5065517;28;20568;-46
2021/03/29 08:32:00;;;;;;;8.67;3.37;;;;;;;;;;5080133;28;20247;-46
2021/03/29 08:34:30;;;;;;;8.27;3.20;;;;;;;;;;5081482;28;20236;-46
2021/03/29 08:36:58;;;;;;;11.17;3.20;;;;;;;;;;5077692;28;20219;-48
2021/03/29 08:39:24;;;;;;;11.67;3.37;;;;;;;;;;5079023;28;20193;-47
2021/03/29 08:41:51;;;;;;;11.27;2.97;;;;;;;;;;5086145;28;20801;-45
2021/03/29 08:44:17;;;;;;;5.10;2.53;;;;;;;;;;5055622;28;20235;-47
2021/03/29 08:46:44;;;;;;;6.83;2.67;;;;;;;;;;5062645;28;20598;-49
2021/03/29 08:49:09;;;;;;;7.10;2.60;;;;;;;;;;5074969;28;20220;-49
2021/03/29 08:51:35;;;;;;;7.03;2.63;;;;;;;;;;5088566;28;20201;-48
2021/03/29 08:54:10;;;;;;;6.70;2.90;;;;;;;;;;5064280;28;20220;-47
2021/03/29 08:56:54;;;;;;;7.50;3.03;;;;;;;;;;5074812;28;20274;-48
2021/03/29 08:59:26;;;;;;;8.80;3.20;;;;;;;;;;5072649;28;20195;-48
2021/03/29 09:01:52;;;;;;;8.37;2.90;;;;;;;;;;5076007;28;20207;-48
2021/03/29 09:04:18;;;;;;;8.53;2.97;;;;;;;;;;5073906;28;20254;-47
2021/03/29 09:06:44;;;;;;;12.37;3.37;;;;;;;;;;5064850;28;20193;-48
2021/03/29 09:09:17;;;;;;;5.90;2.60;;;;;;;;;;5063130;28;20245;-48
2021/03/29 09:11:44;;;;;;;8.23;3.43;;;;;;;;;;5083318;28;20580;-47
2021/03/29 09:14:11;;;;;;;8.83;3.37;;;;;;;;;;5065913;28;20212;-47
2021/03/29 09:16:40;;;;;;;9.20;2.80;;;;;;;;;;5081032;28;20219;-48
2021/03/29 09:19:16;;;;;;;12.23;3.30;;;;;;;;;;5083236;28;20233;-48
2021/03/29 09:21:42;;;;;;;9.50;2.90;;;;;;;;;;5081780;28;20287;-48
2021/03/29 09:24:14;;;;;;;9.17;3.20;;;;;;;;;;5078791;28;20185;-49
2021/03/29 09:26:40;;;;;;;6.10;2.60;;;;;;;;;;5076514;28;20208;-48
2021/03/29 09:29:05;;;;;;;8.20;3.37;;;;;;;;;;5074438;28;20213;-47
2021/03/29 09:31:33;;;;;;;5.78;2.55;;;;;;;;;;5070276;28;20261;-49
2021/03/29 09:33:58;;;;;;;10.77;3.33;;;;;;;;;;5074640;28;20703;-46
2021/03/29 09:36:24;;;;;;;5.00;2.67;;;;;;;;;;5080262;28;20192;-46
2021/03/29 09:39:02;;;;;;;10.07;3.13;;;;;;;;;;5078210;28;20720;-46
2021/03/29 09:41:30;;;;;;;9.27;3.00;;;;;;;;;;5069356;28;20208;-47
2021/03/29 09:43:56;;;;;;;8.63;2.70;;;;;;;;;;5074599;28;20253;-46
2021/03/29 09:46:26;;;;;;;8.53;3.30;;;;;;;;;;5080820;28;20197;-46
2021/03/29 09:49:15;;;;;;;9.20;2.80;;;;;;;;;;5074755;28;20201;-46
2021/03/29 09:51:42;;;;;;;5.50;2.20;;;;;;;;;;5060640;28;20216;-48
2021/03/29 09:54:23;;;;;;;6.50;2.88;;;;;;;;;;5082558;28;20212;-48
2021/03/29 09:56:49;;;;;;;8.15;2.80;;;;;;;;;;5082815;28;20272;-48
2021/03/29 09:59:25;;;;;;;4.78;2.75;;;;;;;;;;5084865;28;20309;-49
2021/03/29 10:01:50;;;;;;;6.97;2.83;;;;;;;;;;5075491;28;20212;-49
2021/03/29 10:04:15;;;;;;;8.35;2.60;;;;;;;;;;5079536;28;20563;-49
2021/03/29 10:06:54;;;;;;;7.80;2.78;;;;;;;;;;5082124;28;20212;-48
2021/03/29 10:09:34;;;;;;;5.75;2.78;;;;;;;;;;5081450;28;20197;-49
2021/03/29 10:12:02;;;;;;;5.03;2.70;;;;;;;;;;5082765;28;20433;-49
2021/03/29 10:14:32;;;;;;;4.38;2.10;;;;;;;;;;5070178;28;20565;-49
2021/03/29 10:16:58;;;;;;;7.30;2.85;;;;;;;;;;5080703;28;20200;-49
2021/03/29 10:19:30;;;;;;;17.08;3.15;;;;;;;;;;5064300;28;20707;-47
2021/03/29 10:21:58;;;;;;;10.05;3.20;;;;;;;;;;5086023;28;20563;-48
2021/03/29 10:24:24;;;;;;;8.95;2.78;;;;;;;;;;5082173;28;20290;-48
2021/03/29 10:27:01;;;;;;;6.68;2.70;;;;;;;;;;5070314;28;20180;-48
2021/03/29 10:29:35;;;;;;;8.30;2.80;;;;;;;;;;5078606;28;20215;-48
2021/03/29 10:32:00;;;;;;;6.85;2.47;;;;;;;;;;5080756;28;20212;-48
2021/03/29 10:34:26;;;;;;;7.43;2.45;;;;;;;;;;5062417;28;20208;-49
2021/03/29 10:36:51;;;;;;;7.45;2.65;;;;;;;;;;5060639;28;20187;-49
2021/03/29 10:39:17;;;;;;;5.88;2.45;;;;;;;;;;5081226;28;20228;-47
2021/03/29 10:41:42;;;;;;;5.70;2.30;;;;;;;;;;5083599;28;20681;-48
2021/03/29 10:44:08;;;;;;;6.05;2.42;;;;;;;;;;5084823;28;20267;-49
2021/03/29 10:46:33;;;;;;;5.55;2.25;;;;;;;;;;5084508;28;20598;-46
2021/03/29 10:48:58;;;;;;;5.13;2.53;;;;;;;;;;5085220;28;20194;-50
2021/03/29 10:51:23;;;;;;;7.22;2.83;;;;;;;;;;5086954;28;20199;-48
2021/03/29 10:53:49;;;;;;;5.78;2.53;;;;;;;;;;5082266;28;20209;-48
2021/03/29 10:56:14;;;;;;;6.07;2.28;;;;;;;;;;5074494;28;20182;-49
2021/03/29 10:58:41;;;;;;;7.70;2.50;;;;;;;;;;5082340;28;20830;-48
2021/03/29 11:01:07;;;;;;;3.75;1.58;;;;;;;;;;5064730;28;20207;-48
2021/03/29 11:03:32;;;;;;;5.43;2.00;;;;;;;;;;5086451;28;20185;-48
2021/03/29 11:05:58;;;;;;;5.30;2.17;;;;;;;;;;5063207;28;20186;-48
2021/03/29 11:08:23;;;;;;;5.07;2.22;;;;;;;;;;5078881;28;20293;-48
2021/03/29 11:10:48;;;;;;;8.88;2.55;;;;;;;;;;5069100;28;20251;-48
2021/03/29 11:13:14;;;;;;;5.60;2.40;;;;;;;;;;5075091;28;20192;-48
2021/03/29 11:15:42;;;;;;;5.22;2.40;;;;;;;;;;5068942;28;20253;-49
2021/03/29 11:18:08;;;;;;;5.93;2.35;;;;;;;;;;5081992;28;20182;-47
2021/03/29 11:20:33;;;;;;;8.90;2.60;;;;;;;;;;5085246;28;20196;-46
2021/03/29 11:22:58;;;;;;;6.93;2.40;;;;;;;;;;5073768;28;20199;-49
2021/03/29 11:25:24;;;;;;;4.53;1.92;;;;;;;;;;5070020;28;20192;-49
2021/03/29 11:27:50;;;;;;;6.72;2.38;;;;;;;;;;5083775;28;20258;-49
2021/03/29 11:30:15;;;;;;;7.18;2.00;;;;;;;;;;5087825;28;20192;-48
2021/03/29 11:32:43;;;;;;;6.20;2.35;;;;;;;;;;5086434;28;20185;-49
2021/03/29 11:35:09;;;;;;;4.63;2.20;;;;;;;;;;5081662;28;20209;-48
2021/03/29 11:37:35;;;;;;;5.57;1.95;;;;;;;;;;5070513;28;20250;-48
2021/03/29 11:40:00;;;;;;;4.78;2.20;;;;;;;;;;5078458;28;20184;-48
2021/03/29 11:42:25;;;;;;;4.78;1.92;;;;;;;;;;5071126;28;20243;-48
2021/03/29 11:44:51;;;;;;;6.53;2.20;;;;;;;;;;5081256;28;20594;-48
2021/03/29 11:47:17;;;;;;;8.75;2.88;;;;;;;;;;5081855;28;20189;-48
2021/03/29 11:49:42;;;;;;;3.35;1.92;;;;;;;;;;5082227;28;20226;-48
2021/03/29 11:52:07;;;;;;;5.20;2.50;;;;;;;;;;5084266;28;20207;-49
2021/03/29 11:54:33;;;;;;;6.13;2.22;;;;;;;;;;5084607;28;20201;-47
2021/03/29 11:57:01;;;;;;;5.40;2.22;;;;;;;;;;5061529;28;20188;-48
2021/03/29 11:59:27;;;;;;;6.60;2.10;;;;;;;;;;5076431;28;20216;-48
2021/03/29 12:02:12;;;;;;;4.30;2.00;;;;;;;;;;5084880;28;20200;-48
2021/03/29 12:04:44;;;;;;;5.15;2.10;;;;;;;;;;5063921;28;20272;-47
2021/03/29 12:08:04;;;;;;;5.60;1.95;;;;;;;;;;5072655;28;20191;-48
2021/03/29 12:12:41;;;;;;;5.90;1.90;;;;;;;;;;5083674;28;20222;-48
2021/03/29 12:15:14;;;;;;;5.53;2.25;;;;;;;;;;5084098;28;20239;-47
2021/03/29 12:17:44;;;;;;;4.68;1.70;;;;;;;;;;5081392;28;20189;-48
2021/03/29 12:20:13;;;;;;;6.03;1.90;;;;;;;;;;5083522;28;20176;-48
2021/03/29 12:22:40;;;;;;;3.92;1.90;;;;;;;;;;5063484;28;20181;-47
2021/03/29 12:25:06;;;;;;;14.32;2.05;;;;;;;;;;5085797;28;20213;-48
2021/03/29 12:27:32;;;;;;;5.50;2.20;;;;;;;;;;5086379;28;20197;-46
2021/03/29 12:30:04;;;;;;;4.68;1.70;;;;;;;;;;5077457;28;20189;-47
2021/03/29 12:32:30;;;;;;;3.55;1.80;;;;;;;;;;5083079;28;20204;-48
2021/03/29 12:34:58;;;;;;;3.83;2.08;;;;;;;;;;5084024;28;20201;-48
2021/03/29 12:37:25;;;;;;;6.30;2.05;;;;;;;;;;5074669;28;20217;-47
2021/03/29 12:40:10;;;;;;;6.10;2.35;;;;;;;;;;5080869;28;20177;-47
2021/03/29 12:45:26;;;;;;;3.88;1.80;;;;;;;;;;5080114;28;20275;-46
2021/03/29 12:47:58;;;;;;;3.90;1.60;;;;;;;;;;5085222;28;20212;-47
2021/03/29 12:50:24;;;;;;;2.97;1.45;;;;;;;;;;5083377;28;20604;-48
2021/03/29 12:52:50;;;;;;;4.72;1.85;;;;;;;;;;5080645;28;20180;-47
2021/03/29 12:55:18;;;;;;;2.38;1.40;;;;;;;;;;5082109;28;20189;-47
2021/03/29 12:57:44;;;;;;;6.13;1.80;;;;;;;;;;5083646;28;20228;-48
2021/03/29 13:00:12;;;;;;;5.32;2.15;;;;;;;;;;5083365;28;20668;-45
2021/03/29 13:02:39;;;;;;;3.47;1.98;;;;;;;;;;5081858;28;20181;-47
2021/03/29 13:05:08;;;;;;;4.93;1.58;;;;;;;;;;5080627;28;20177;-47
2021/03/29 13:07:43;;;;;;;6.10;1.92;;;;;;;;;;5058932;28;20212;-45
2021/03/29 13:10:14;;;;;;;5.72;1.90;;;;;;;;;;5084042;28;20184;-47
2021/03/29 13:12:40;;;;;;;5.53;1.70;;;;;;;;;;5065687;28;20267;-46
2021/03/29 13:15:08;;;;;;;8.13;1.90;;;;;;;;;;5075617;28;20247;-46
2021/03/29 13:17:37;;;;;;;4.10;1.73;;;;;;;;;;5064659;28;20268;-46
2021/03/29 13:20:04;;;;;;;4.32;1.70;;;;;;;;;;5082914;28;20199;-45
2021/03/29 13:22:30;;;;;;;3.50;1.70;;;;;;;;;;5080263;28;20792;-46
2021/03/29 13:24:55;;;;;;;5.65;1.80;;;;;;;;;;5082271;28;20281;-46
2021/03/29 13:27:21;;;;;;;4.47;2.05;;;;;;;;;;5084182;28;20181;-46
2021/03/29 13:29:47;;;;;;;4.00;1.73;;;;;;;;;;5081905;28;20725;-45
2021/03/29 13:32:13;;;;;;;2.95;1.80;;;;;;;;;;5077674;28;20212;-46
2021/03/29 13:34:40;;;;;;;3.47;1.80;;;;;;;;;;5066422;28;20232;-47
2021/03/29 13:37:06;;;;;;;3.00;2.20;;;;;;;;;;5085097;28;20211;-47
2021/03/29 13:39:31;;;;;;;7.28;2.28;;;;;;;;;;5078426;28;20185;-46
2021/03/29 13:41:57;;;;;;;3.08;1.80;;;;;;;;;;5079507;28;20213;-45
2021/03/29 13:44:23;;;;;;;4.15;1.98;;;;;;;;;;5082404;28;20204;-46
2021/03/29 13:46:50;;;;;;;6.35;2.25;;;;;;;;;;5081847;28;20184;-45
2021/03/29 13:49:17;;;;;;;3.90;2.22;;;;;;;;;;5064138;28;20866;-47
2021/03/29 13:51:47;;;;;;;4.63;1.70;;;;;;;;;;5067254;28;20216;-46
2021/03/29 13:54:13;;;;;;;5.90;1.67;;;;;;;;;;5075114;28;20217;-47
2021/03/29 13:56:40;;;;;;;3.72;1.60;;;;;;;;;;5082872;28;20180;-45
2021/03/29 13:59:05;;;;;;;4.65;1.90;;;;;;;;;;5069808;28;20223;-50
2021/03/29 14:01:34;;;;;;;3.80;2.15;;;;;;;;;;5079560;28;20861;-47
2021/03/29 14:04:00;;;;;;;3.67;1.77;;;;;;;;;;5066485;28;20172;-47
2021/03/29 14:06:31;;;;;;;3.08;1.60;;;;;;;;;;5077479;28;20260;-46
2021/03/29 14:08:57;;;;;;;5.65;2.00;;;;;;;;;;5075053;28;20263;-46
2021/03/29 14:11:23;;;;;;;3.92;1.55;;;;;;;;;;5080563;28;20667;-45
2021/03/29 14:13:48;;;;;;;3.88;1.60;;;;;;;;;;5082619;28;20212;-45
2021/03/29 14:16:14;;;;;;;4.40;2.08;;;;;;;;;;5078391;28;20678;-47
2021/03/29 14:18:40;;;;;;;5.75;1.85;;;;;;;;;;5084783;28;20185;-46
2021/03/29 14:21:19;;;;;;;3.65;1.83;;;;;;;;;;5069641;28;20215;-46
2021/03/29 14:23:48;;;;;;;5.03;2.00;;;;;;;;;;5081993;28;20191;-47
2021/03/29 14:26:13;;;;;;;6.38;1.83;;;;;;;;;;5080336;28;20617;-47
2021/03/29 14:28:39;;;;;;;3.90;1.80;;;;;;;;;;5083765;28;20185;-47
2021/03/29 14:31:04;;;;;;;5.22;1.90;;;;;;;;;;5083816;28;20232;-45
2021/03/29 14:33:31;;;;;;;5.30;1.88;;;;;;;;;;5084144;28;20633;-47
2021/03/29 14:38:34;;;;;;;2.20;1.75;;;;;;;;;;5083277;28;20285;-47
2021/03/29 14:41:45;;;;;;;6.15;1.95;;;;;;;;;;5082392;28;20297;-47
2021/03/29 14:46:16;;;;;;;7.82;1.92;;;;;;;;;;5079948;28;20189;-47
2021/03/29 14:48:41;;;;;;;3.83;1.80;;;;;;;;;;5082663;28;21457;-48
2021/03/29 14:51:07;;;;;;;5.45;1.92;;;;;;;;;;5082342;28;20200;-48
2021/03/29 14:53:32;;;;;;;2.95;1.80;;;;;;;;;;5082116;28;20201;-47
2021/03/29 14:55:57;;;;;;;4.28;2.05;;;;;;;;;;5082627;28;20189;-48
2021/03/29 14:58:23;;;;;;;4.15;1.92;;;;;;;;;;5084225;28;20184;-48
2021/03/29 15:00:48;;;;;;;8.18;2.05;;;;;;;;;;5075799;28;20251;-48
2021/03/29 15:03:17;;;;;;;4.80;2.22;;;;;;;;;;5085134;28;20264;-46